Time;durP1;ratioP1;P1;durP2;ratioP2;P2;SDS_P1;SDS_P2;PMS_P1;PMS_P2;Temp;Humidity;BMP_temperature;BMP_pressure;BME280_temperature;BME280_humidity;BME280_pressure;Samples;Min_cycle;Max_cycle;Signal;HPM_P1;HPM_P2
2022/03/22 00:00:55;;;;;;;3.30;3.10;;;17.90;63.80;;;;;;4995262;28;20057;-13
2022/03/22 00:03:23;;;;;;;3.03;2.85;;;17.90;63.80;;;;;;4996162;28;20038;-13
2022/03/22 00:05:49;;;;;;;2.53;2.33;;;17.90;63.80;;;;;;4995645;28;20569;-13
2022/03/22 00:08:15;;;;;;;2.60;2.40;;;17.90;63.80;;;;;;4995415;28;20160;-13
2022/03/22 00:10:40;;;;;;;2.90;2.70;;;17.90;63.80;;;;;;4996536;28;20042;-13
2022/03/22 00:13:06;;;;;;;2.33;2.22;;;17.90;63.70;;;;;;4994154;28;20525;-12
2022/03/22 00:15:32;;;;;;;2.60;2.40;;;17.90;63.70;;;;;;4985964;28;20046;-12
2022/03/22 00:17:59;;;;;;;2.80;2.60;;;17.90;63.70;;;;;;4994005;28;20543;-12
2022/03/22 00:20:24;;;;;;;2.58;2.38;;;17.90;63.70;;;;;;4995962;28;20057;-12
2022/03/22 00:22:50;;;;;;;2.40;2.20;;;17.90;63.70;;;;;;4995210;28;20042;-12
2022/03/22 00:25:16;;;;;;;2.67;2.47;;;17.90;63.80;;;;;;4994802;28;20058;-13
2022/03/22 00:27:52;;;;;;;2.20;2.10;;;17.90;63.70;;;;;;4996028;28;20062;-12
2022/03/22 00:30:28;;;;;;;2.20;2.10;;;17.90;63.60;;;;;;4995128;28;20073;-13
2022/03/22 00:32:55;;;;;;;2.03;1.92;;;17.90;63.80;;;;;;4983096;28;20413;-13
2022/03/22 00:35:25;;;;;;;2.47;2.28;;;17.90;63.60;;;;;;4975995;28;20129;-13
2022/03/22 00:37:53;;;;;;;2.60;2.40;;;17.90;63.60;;;;;;4986509;28;20042;-13
2022/03/22 00:40:18;;;;;;;2.28;2.10;;;17.90;63.70;;;;;;4994908;28;20053;-13
2022/03/22 00:42:47;;;;;;;2.45;2.25;;;17.80;63.60;;;;;;4987910;28;20046;-13
2022/03/22 00:45:16;;;;;;;2.80;2.60;;;17.90;63.60;;;;;;4979026;28;20038;-13
2022/03/22 00:47:45;;;;;;;2.60;2.40;;;17.80;63.50;;;;;;4995725;28;20039;-13
2022/03/22 00:50:11;;;;;;;2.78;2.28;;;17.80;63.50;;;;;;4994945;28;20048;-13
2022/03/22 00:52:37;;;;;;;2.55;2.35;;;17.80;63.40;;;;;;4995042;28;20038;-13
2022/03/22 00:55:05;;;;;;;2.05;1.95;;;17.90;63.40;;;;;;4994557;28;20042;-13
2022/03/22 00:57:32;;;;;;;2.28;2.15;;;17.90;63.40;;;;;;4976355;28;20403;-12
2022/03/22 01:00:07;;;;;;;1.83;1.73;;;17.90;63.40;;;;;;4981449;28;20049;-13
2022/03/22 01:02:36;;;;;;;2.20;2.00;;;17.90;63.40;;;;;;4995326;28;20047;-13
2022/03/22 01:05:04;;;;;;;2.35;2.25;;;17.80;63.40;;;;;;4994272;28;20113;-13
2022/03/22 01:07:30;;;;;;;2.58;2.40;;;17.80;63.40;;;;;;4995253;28;20389;-12
2022/03/22 01:09:56;;;;;;;2.50;2.30;;;17.90;63.40;;;;;;4995320;28;20116;-12
2022/03/22 01:12:22;;;;;;;2.30;2.10;;;17.90;63.50;;;;;;4994902;28;20042;-12
2022/03/22 01:14:48;;;;;;;2.40;2.30;;;17.90;63.40;;;;;;4995160;28;20467;-12
2022/03/22 01:17:13;;;;;;;1.98;1.88;;;17.90;63.50;;;;;;4994956;28;20058;-12
2022/03/22 01:19:39;;;;;;;2.40;2.20;;;17.90;63.50;;;;;;4995525;28;20058;-12
2022/03/22 01:22:05;;;;;;;1.80;1.70;;;17.80;63.40;;;;;;4989812;28;20043;-15
2022/03/22 01:24:31;;;;;;;2.00;1.90;;;17.80;63.50;;;;;;4993000;28;20042;-13
2022/03/22 01:26:57;;;;;;;1.98;1.77;;;17.80;63.90;;;;;;4995177;28;20047;-13
2022/03/22 01:29:23;;;;;;;2.30;2.15;;;17.90;64.20;;;;;;4994306;28;20141;-12
2022/03/22 01:31:49;;;;;;;2.95;1.73;;;17.80;65.40;;;;;;4995580;28;20543;-13
2022/03/22 01:34:15;;;;;;;1.65;1.55;;;17.90;68.30;;;;;;4989509;28;20061;-13
2022/03/22 01:36:41;;;;;;;1.77;1.67;;;17.90;65.50;;;;;;4985093;28;20047;-13
2022/03/22 01:39:06;;;;;;;2.13;2.03;;;17.80;63.80;;;;;;4994241;28;20046;-13
2022/03/22 01:41:32;;;;;;;2.17;2.08;;;17.80;63.60;;;;;;4995232;28;20073;-13
2022/03/22 01:43:58;;;;;;;2.03;1.92;;;17.80;64.20;;;;;;4979898;28;20623;-13
2022/03/22 01:46:24;;;;;;;1.92;1.83;;;17.80;63.40;;;;;;4978925;28;20054;-13
2022/03/22 01:48:50;;;;;;;2.45;1.55;;;17.80;63.30;;;;;;4980120;28;20490;-13
2022/03/22 01:51:17;;;;;;;1.90;1.80;;;17.80;63.50;;;;;;4977487;28;20085;-12
2022/03/22 01:53:43;;;;;;;2.10;2.00;;;17.80;63.40;;;;;;4986434;28;20060;-12
2022/03/22 01:56:09;;;;;;;2.08;1.85;;;17.80;63.50;;;;;;4993197;28;20050;-12
2022/03/22 01:58:34;;;;;;;2.53;2.20;;;17.80;63.50;;;;;;4991155;28;20659;-13
2022/03/22 02:06:31;;;;;;;2.00;1.90;;;17.80;63.50;;;;;;4996536;28;20074;-13
2022/03/22 02:08:56;;;;;;;1.73;1.63;;;17.80;63.60;;;;;;4980830;28;20642;-13
2022/03/22 02:11:22;;;;;;;1.83;1.73;;;17.80;64.00;;;;;;4997914;28;20164;-13
2022/03/22 02:13:48;;;;;;;1.90;1.80;;;17.80;65.10;;;;;;4998579;28;20050;-12
2022/03/22 02:16:13;;;;;;;2.08;1.98;;;17.90;68.00;;;;;;4986148;28;20576;-13
2022/03/22 02:18:40;;;;;;;2.10;2.00;;;17.70;63.30;;;;;;4993139;28;20046;-11
2022/03/22 02:21:05;;;;;;;1.90;1.80;;;17.70;63.30;;;;;;4996155;28;20142;-12
2022/03/22 02:23:50;;;;;;;1.65;1.55;;;17.70;63.30;;;;;;4996157;28;20058;-13
2022/03/22 02:26:16;;;;;;;;;;;17.80;63.40;;;;;;4998144;28;20039;-13
2022/03/22 02:28:44;;;;;;;1.50;1.40;;;17.70;63.30;;;;;;4988518;28;19918;-12
2022/03/22 02:31:10;;;;;;;1.60;1.50;;;17.70;63.30;;;;;;4978207;28;20043;-13
2022/03/22 02:33:40;;;;;;;1.70;1.60;;;17.80;63.20;;;;;;4988887;28;20088;-12
2022/03/22 02:36:06;;;;;;;1.98;1.88;;;17.70;63.10;;;;;;4996103;28;20042;-13
2022/03/22 02:38:31;;;;;;;1.67;1.58;;;17.70;63.20;;;;;;4997253;28;20070;-13
2022/03/22 02:40:57;;;;;;;2.10;2.00;;;17.70;63.20;;;;;;4997893;28;20049;-13
2022/03/22 02:43:23;;;;;;;1.98;1.88;;;17.80;63.10;;;;;;4983235;28;20518;-13
2022/03/22 02:45:49;;;;;;;1.90;1.80;;;17.80;63.20;;;;;;4978453;28;20062;-12
2022/03/22 02:48:15;;;;;;;1.80;1.70;;;17.70;63.10;;;;;;4977948;28;20035;-12
2022/03/22 02:50:40;;;;;;;2.08;1.98;;;17.70;63.10;;;;;;4978400;28;20085;-13
2022/03/22 02:53:06;;;;;;;2.20;2.10;;;17.70;63.20;;;;;;4978239;28;20520;-13
2022/03/22 02:55:32;;;;;;;4.10;2.10;;;17.70;63.10;;;;;;4993482;28;20073;-13
2022/03/22 02:57:58;;;;;;;1.90;1.80;;;17.70;63.00;;;;;;4997714;28;20042;-12
2022/03/22 03:00:26;;;;;;;2.10;2.00;;;17.70;63.00;;;;;;4996315;28;20507;-13
2022/03/22 03:02:53;;;;;;;1.80;1.70;;;17.70;63.10;;;;;;4997666;28;20035;-12
2022/03/22 03:05:19;;;;;;;1.73;1.63;;;17.70;63.00;;;;;;4996929;28;20114;-12
2022/03/22 03:07:45;;;;;;;1.90;1.80;;;17.70;63.00;;;;;;4984256;28;20062;-12
2022/03/22 03:10:10;;;;;;;1.60;1.50;;;17.70;63.90;;;;;;4984849;28;20047;-14
2022/03/22 03:12:36;;;;;;;1.73;1.63;;;17.70;63.00;;;;;;4990892;28;20038;-12
2022/03/22 03:15:02;;;;;;;1.90;1.80;;;17.70;63.00;;;;;;4997500;28;20160;-13
2022/03/22 03:17:28;;;;;;;1.95;1.85;;;17.70;63.10;;;;;;4994907;28;20051;-12
2022/03/22 03:19:53;;;;;;;2.17;1.98;;;17.70;63.00;;;;;;4996931;28;20065;-12
2022/03/22 03:22:19;;;;;;;1.95;1.85;;;17.70;63.00;;;;;;4996584;28;20070;-13
2022/03/22 03:24:44;;;;;;;1.65;1.55;;;17.70;63.00;;;;;;4996236;28;20050;-13
2022/03/22 03:27:10;;;;;;;1.80;1.70;;;17.70;63.00;;;;;;4996614;28;20046;-12
2022/03/22 03:29:36;;;;;;;1.73;1.63;;;17.70;63.00;;;;;;4997137;28;20046;-13
2022/03/22 03:32:01;;;;;;;1.80;1.70;;;17.70;63.00;;;;;;4986453;28;20500;-13
2022/03/22 03:34:27;;;;;;;1.67;1.58;;;17.70;63.00;;;;;;4977067;28;20055;-13
2022/03/22 03:36:53;;;;;;;1.77;1.67;;;17.70;63.00;;;;;;4977836;28;20505;-12
2022/03/22 03:39:18;;;;;;;2.00;1.80;;;17.60;62.90;;;;;;4977203;28;20050;-13
2022/03/22 03:42:00;;;;;;;1.80;1.70;;;17.70;63.00;;;;;;4989986;28;20411;-14
2022/03/22 03:47:16;;;;;;;1.90;1.80;;;17.70;62.90;;;;;;4995081;28;20077;-12
2022/03/22 03:49:43;;;;;;;1.98;1.88;;;17.70;63.00;;;;;;4996515;28;20062;-12
2022/03/22 03:52:19;;;;;;;2.50;2.00;;;17.60;63.00;;;;;;4996607;28;20065;-13
2022/03/22 03:54:44;;;;;;;1.77;1.67;;;17.60;63.00;;;;;;4995877;28;20136;-13
2022/03/22 03:57:10;;;;;;;1.70;1.60;;;17.60;62.90;;;;;;4995671;28;20054;-13
2022/03/22 03:59:37;;;;;;;1.75;1.65;;;17.70;62.80;;;;;;4982620;28;20569;-12
2022/03/22 04:02:03;;;;;;;2.05;1.90;;;17.60;62.80;;;;;;4996573;28;20042;-12
2022/03/22 04:04:28;;;;;;;2.05;1.95;;;17.70;62.90;;;;;;4995088;28;20042;-12
2022/03/22 04:06:54;;;;;;;2.20;2.10;;;17.60;62.70;;;;;;4996123;28;20042;-12
2022/03/22 04:09:19;;;;;;;1.85;1.75;;;17.60;62.80;;;;;;4995893;28;20061;-13
2022/03/22 04:11:45;;;;;;;1.60;1.50;;;17.60;62.90;;;;;;4985077;28;20053;-13
2022/03/22 04:14:11;;;;;;;1.70;1.60;;;17.60;62.90;;;;;;4995739;28;20069;-12
2022/03/22 04:16:37;;;;;;;1.92;1.83;;;17.60;62.80;;;;;;4996285;28;20440;-12
2022/03/22 04:19:04;;;;;;;1.60;1.50;;;17.60;62.80;;;;;;4995498;28;20416;-12
2022/03/22 04:21:29;;;;;;;1.98;1.88;;;17.60;62.80;;;;;;4995481;28;20049;-13
2022/03/22 04:23:55;;;;;;;1.90;1.80;;;17.60;62.80;;;;;;4996068;28;20046;-13
2022/03/22 04:26:21;;;;;;;1.70;1.60;;;17.60;62.70;;;;;;4995226;28;20042;-13
2022/03/22 04:34:15;;;;;;;;;;;17.60;62.80;;;;;;4991612;28;20050;-13
2022/03/22 04:36:40;;;;;;;2.03;1.92;;;17.60;62.70;;;;;;4995719;28;19913;-12
2022/03/22 04:39:06;;;;;;;1.52;1.42;;;17.60;62.80;;;;;;4996067;28;20035;-12
2022/03/22 04:41:32;;;;;;;1.85;1.75;;;17.60;62.80;;;;;;4990312;28;20130;-13
2022/03/22 04:43:57;;;;;;;1.50;1.40;;;17.60;62.80;;;;;;4995935;28;20038;-13
2022/03/22 04:46:23;;;;;;;1.95;1.85;;;17.60;62.70;;;;;;4995357;28;20042;-12
2022/03/22 04:48:48;;;;;;;1.55;1.48;;;17.50;62.70;;;;;;4995925;28;20096;-13
2022/03/22 04:56:43;;;;;;;1.80;1.70;;;17.60;62.70;;;;;;4985314;28;20053;-14
2022/03/22 04:59:10;;;;;;;2.17;2.08;;;17.60;62.70;;;;;;4995554;28;20042;-12
2022/03/22 05:01:35;;;;;;;1.75;1.65;;;17.60;62.60;;;;;;4995103;28;20042;-13
2022/03/22 05:04:01;;;;;;;2.17;2.08;;;17.50;62.60;;;;;;4995303;28;20042;-13
2022/03/22 05:06:27;;;;;;;1.73;1.63;;;17.60;62.70;;;;;;4994879;28;20049;-13
2022/03/22 05:08:55;;;;;;;1.80;1.70;;;17.50;62.60;;;;;;4994610;28;20104;-12
2022/03/22 05:11:21;;;;;;;1.70;1.60;;;17.50;62.60;;;;;;4994664;28;20538;-12
2022/03/22 05:13:47;;;;;;;2.00;1.90;;;17.50;62.70;;;;;;4993312;28;20407;-13
2022/03/22 05:16:13;;;;;;;2.10;2.00;;;17.50;63.40;;;;;;4986070;28;20046;-15
2022/03/22 05:18:38;;;;;;;2.08;1.98;;;17.60;62.60;;;;;;4995805;28;20092;-13
2022/03/22 05:21:04;;;;;;;1.90;1.80;;;17.50;62.50;;;;;;4997842;28;20106;-13
2022/03/22 05:23:31;;;;;;;1.80;1.70;;;17.50;62.50;;;;;;4997666;28;20050;-14
2022/03/22 05:25:56;;;;;;;2.00;1.90;;;17.50;62.50;;;;;;4998821;28;20096;-12
2022/03/22 05:28:22;;;;;;;1.80;1.70;;;17.50;62.60;;;;;;4995821;28;20046;-13
2022/03/22 05:30:48;;;;;;;2.97;2.03;;;17.50;62.70;;;;;;4999363;28;20077;-13
2022/03/22 05:33:13;;;;;;;1.98;1.88;;;17.50;62.70;;;;;;4998842;28;20138;-13
2022/03/22 05:35:39;;;;;;;1.88;1.77;;;17.50;62.70;;;;;;4996963;28;20046;-13
2022/03/22 05:38:05;;;;;;;2.13;2.03;;;17.50;62.60;;;;;;4995405;28;20038;-12
2022/03/22 05:40:31;;;;;;;1.90;1.80;;;17.50;62.60;;;;;;4998726;28;20399;-13
2022/03/22 05:42:56;;;;;;;1.88;1.77;;;17.50;62.70;;;;;;4993692;28;20046;-12
2022/03/22 05:45:23;;;;;;;2.05;1.92;;;17.50;62.60;;;;;;4997807;28;20100;-13
2022/03/22 05:47:50;;;;;;;1.90;1.80;;;17.50;62.50;;;;;;4999004;28;20450;-14
2022/03/22 05:50:15;;;;;;;2.05;1.95;;;17.50;62.60;;;;;;4997829;28;20042;-15
2022/03/22 05:52:45;;;;;;;2.00;1.90;;;17.50;62.60;;;;;;4997679;28;20054;-14
2022/03/22 05:55:11;;;;;;;2.10;2.00;;;17.50;62.60;;;;;;4995073;28;20045;-13
2022/03/22 05:57:36;;;;;;;2.05;1.95;;;17.50;62.50;;;;;;4996287;28;20123;-13
2022/03/22 06:00:03;;;;;;;2.20;2.10;;;17.50;62.60;;;;;;4996707;28;20050;-14
2022/03/22 06:02:29;;;;;;;2.35;2.05;;;17.50;63.40;;;;;;4998617;28;20077;-14
2022/03/22 06:04:55;;;;;;;2.65;2.55;;;17.50;63.00;;;;;;4996683;28;20508;-15
2022/03/22 06:07:21;;;;;;;2.10;2.00;;;17.50;63.20;;;;;;4993341;28;20093;-14
2022/03/22 06:09:47;;;;;;;2.05;1.95;;;17.50;65.10;;;;;;4991807;28;20050;-13
2022/03/22 06:12:15;;;;;;;3.08;1.70;;;17.50;66.20;;;;;;4998316;28;20130;-13
2022/03/22 06:14:41;;;;;;;2.97;2.33;;;17.50;65.60;;;;;;4996197;28;20046;-14
2022/03/22 06:17:07;;;;;;;2.70;2.28;;;17.50;64.90;;;;;;4986175;28;20055;-13
2022/03/22 06:19:32;;;;;;;2.20;2.10;;;17.50;65.20;;;;;;4997661;28;20060;-13
2022/03/22 06:21:58;;;;;;;2.08;1.88;;;17.50;65.10;;;;;;4997324;28;20523;-15
2022/03/22 06:24:24;;;;;;;2.38;2.28;;;17.50;65.10;;;;;;4996737;28;20565;-13
2022/03/22 06:26:49;;;;;;;3.08;2.75;;;17.50;65.50;;;;;;4997621;28;20050;-13
2022/03/22 06:29:15;;;;;;;2.50;2.35;;;17.50;65.10;;;;;;4645211;28;10000098;-14
2022/03/22 06:31:40;;;;;;;2.85;2.65;;;17.50;64.80;;;;;;4994912;28;20058;-13
2022/03/22 06:34:06;;;;;;;2.15;2.05;;;17.50;64.70;;;;;;4992991;28;20406;-13
2022/03/22 06:36:32;;;;;;;2.35;2.20;;;17.50;65.30;;;;;;4987540;28;20053;-14
2022/03/22 06:38:57;;;;;;;2.97;2.30;;;17.50;64.30;;;;;;4994049;28;20691;-13
2022/03/22 06:41:23;;;;;;;2.60;2.40;;;17.60;64.10;;;;;;4991062;28;20035;-14
2022/03/22 06:43:48;;;;;;;2.70;2.50;;;17.60;64.00;;;;;;4997118;28;20054;-14
2022/03/22 06:46:14;;;;;;;6.40;2.42;;;17.60;64.20;;;;;;4994324;28;21045;-14
2022/03/22 06:48:40;;;;;;;5.72;2.40;;;17.50;65.00;;;;;;4988933;28;20481;-12
2022/03/22 06:51:05;;;;;;;3.22;2.80;;;17.60;65.00;;;;;;4993644;28;20682;-13
2022/03/22 06:53:31;;;;;;;4.95;2.53;;;17.60;65.30;;;;;;4995368;28;20035;-13
2022/03/22 06:55:58;;;;;;;3.72;2.53;;;17.60;65.90;;;;;;4983187;28;20043;-12
2022/03/22 06:58:24;;;;;;;2.50;2.30;;;17.50;65.90;;;;;;4986778;28;20034;-13
2022/03/22 07:00:51;;;;;;;2.65;2.45;;;17.50;65.80;;;;;;4996390;28;20042;-12
2022/03/22 07:03:17;;;;;;;4.53;2.63;;;17.50;65.80;;;;;;4995976;28;20039;-12
2022/03/22 07:05:46;;;;;;;2.42;2.30;;;17.50;65.40;;;;;;4996955;28;20045;-12
2022/03/22 07:08:12;;;;;;;2.03;1.83;;;17.50;65.30;;;;;;4994654;28;20049;-12
2022/03/22 07:10:38;;;;;;;2.67;2.47;;;17.60;65.10;;;;;;4995510;28;20042;-13
2022/03/22 07:13:05;;;;;;;2.35;2.00;;;17.60;65.10;;;;;;4986119;28;20074;-12
2022/03/22 07:15:36;;;;;;;3.67;2.05;;;17.60;65.00;;;;;;4986711;28;20065;-13
2022/03/22 07:18:06;;;;;;;2.30;1.80;;;17.60;65.00;;;;;;4997131;28;20591;-13
2022/03/22 07:20:32;;;;;;;3.53;2.25;;;17.60;64.70;;;;;;4995484;28;20057;-13
2022/03/22 07:22:59;;;;;;;2.65;2.45;;;17.60;64.60;;;;;;4997080;28;20049;-13
2022/03/22 07:25:24;;;;;;;2.33;2.15;;;17.60;64.90;;;;;;4996040;28;20051;-13
2022/03/22 07:27:51;;;;;;;2.20;2.00;;;17.60;64.70;;;;;;4995818;28;20045;-13
2022/03/22 07:30:16;;;;;;;2.20;2.05;;;17.60;64.70;;;;;;4994488;28;20114;-13
2022/03/22 07:32:43;;;;;;;2.60;2.20;;;17.60;64.50;;;;;;4995651;28;20500;-13
2022/03/22 07:35:09;;;;;;;2.67;2.20;;;17.60;64.50;;;;;;4996134;28;20046;-13
2022/03/22 07:37:35;;;;;;;2.70;2.45;;;17.60;64.40;;;;;;4992519;28;20050;-13
2022/03/22 07:40:01;;;;;;;3.78;2.40;;;17.70;64.30;;;;;;4990764;28;20097;-13
2022/03/22 07:42:28;;;;;;;2.78;2.22;;;17.60;64.30;;;;;;4979058;28;20515;-12
2022/03/22 07:44:57;;;;;;;2.83;2.60;;;17.60;64.50;;;;;;4996043;28;20046;-13
2022/03/22 07:47:23;;;;;;;2.55;2.45;;;17.60;64.20;;;;;;4995789;28;20081;-13
2022/03/22 07:55:17;;;;;;;2.97;2.17;;;17.60;64.30;;;;;;4979559;28;20514;-15
2022/03/22 07:57:44;;;;;;;1.95;1.85;;;17.70;64.10;;;;;;4981253;28;20054;-15
2022/03/22 08:00:10;;;;;;;2.50;2.40;;;17.70;64.20;;;;;;4983514;28;20568;-16
2022/03/22 08:02:36;;;;;;;2.50;2.22;;;17.70;64.10;;;;;;4981946;28;20438;-16
2022/03/22 08:05:05;;;;;;;2.67;2.47;;;17.70;63.90;;;;;;4980200;28;20105;-16
2022/03/22 08:07:31;;;;;;;2.60;2.40;;;17.70;63.70;;;;;;4980381;28;20054;-16
2022/03/22 08:09:57;;;;;;;2.38;2.28;;;17.70;63.60;;;;;;4981760;28;20057;-15
2022/03/22 08:12:22;;;;;;;3.00;2.70;;;17.80;63.40;;;;;;4981824;28;20602;-14
2022/03/22 08:14:48;;;;;;;3.78;2.47;;;17.80;63.30;;;;;;4979714;28;20058;-16
2022/03/22 08:17:13;;;;;;;3.53;2.40;;;17.70;63.20;;;;;;4982438;28;20492;-15
2022/03/22 08:19:39;;;;;;;2.28;2.17;;;17.70;63.30;;;;;;4980611;28;20147;-15
2022/03/22 08:22:05;;;;;;;2.42;2.28;;;17.80;63.20;;;;;;4981890;28;20068;-13
2022/03/22 08:24:31;;;;;;;2.67;2.47;;;17.80;63.00;;;;;;4978684;28;20081;-14
2022/03/22 08:26:57;;;;;;;3.08;2.55;;;17.80;62.80;;;;;;4981607;28;20112;-14
2022/03/22 08:29:22;;;;;;;2.55;2.40;;;17.80;62.80;;;;;;4982275;28;20054;-14
2022/03/22 08:31:49;;;;;;;2.35;2.15;;;17.80;62.90;;;;;;4987158;28;20054;-13
2022/03/22 08:34:14;;;;;;;2.70;2.50;;;17.80;62.90;;;;;;4976739;28;20050;-15
2022/03/22 08:36:40;;;;;;;3.28;2.70;;;17.80;62.90;;;;;;4985872;28;20067;-14
2022/03/22 08:39:05;;;;;;;2.40;2.20;;;17.80;62.80;;;;;;4996162;28;20404;-14
2022/03/22 08:41:31;;;;;;;2.20;2.10;;;17.90;62.90;;;;;;4995038;28;20038;-15
2022/03/22 08:43:57;;;;;;;2.70;2.60;;;17.90;62.80;;;;;;4984355;28;20406;-13
2022/03/22 08:46:24;;;;;;;2.35;2.25;;;17.90;62.80;;;;;;4995729;28;20053;-14
2022/03/22 08:48:51;;;;;;;2.47;2.30;;;17.80;62.50;;;;;;4995274;28;20491;-15
2022/03/22 08:51:19;;;;;;;2.50;2.40;;;17.90;62.60;;;;;;4989933;28;20042;-15
2022/03/22 08:53:44;;;;;;;2.60;2.40;;;17.90;62.50;;;;;;4993799;28;20047;-13
2022/03/22 08:56:11;;;;;;;2.30;2.10;;;17.80;62.50;;;;;;4994725;28;20166;-13
2022/03/22 08:58:37;;;;;;;2.08;1.98;;;17.90;62.50;;;;;;4994504;28;20042;-14
2022/03/22 09:01:03;;;;;;;2.45;2.35;;;17.90;62.50;;;;;;4995054;28;20046;-13
2022/03/22 09:03:31;;;;;;;2.50;2.30;;;17.90;62.30;;;;;;4995064;28;20096;-14
2022/03/22 09:06:09;;;;;;;3.53;2.70;;;17.90;62.30;;;;;;4994907;28;20046;-14
2022/03/22 09:08:39;;;;;;;2.30;2.20;;;17.90;62.20;;;;;;4983458;28;20042;-14
2022/03/22 09:11:05;;;;;;;1.90;1.80;;;17.90;62.30;;;;;;4984885;28;20503;-12
2022/03/22 09:13:30;;;;;;;2.25;2.15;;;17.90;62.30;;;;;;4987305;28;20046;-13
2022/03/22 09:15:56;;;;;;;2.55;2.22;;;18.00;62.50;;;;;;4995457;28;20038;-14
2022/03/22 09:18:22;;;;;;;2.88;2.67;;;17.90;62.10;;;;;;4995041;28;20042;-13
2022/03/22 09:20:48;;;;;;;2.55;2.38;;;18.00;61.60;;;;;;4994731;28;20050;-12
2022/03/22 09:23:14;;;;;;;2.70;2.50;;;18.00;62.50;;;;;;4995318;28;20042;-12
2022/03/22 09:25:43;;;;;;;2.63;2.47;;;18.00;62.70;;;;;;4994971;28;20499;-13
2022/03/22 09:28:10;;;;;;;2.67;2.47;;;18.10;62.40;;;;;;4994917;28;20057;-12
2022/03/22 09:30:36;;;;;;;2.70;2.47;;;18.10;62.20;;;;;;4994969;28;20042;-11
2022/03/22 09:33:03;;;;;;;2.95;2.75;;;18.10;61.40;;;;;;4993485;28;20112;-13
2022/03/22 09:35:29;;;;;;;2.88;2.67;;;18.10;61.40;;;;;;4975240;28;20066;-12
2022/03/22 09:37:55;;;;;;;2.90;2.80;;;18.10;61.40;;;;;;4974722;28;20062;-12
2022/03/22 09:40:22;;;;;;;2.95;2.75;;;18.10;61.30;;;;;;4984029;28;20042;-12
2022/03/22 09:42:47;;;;;;;2.90;2.70;;;18.10;61.60;;;;;;4975046;28;20057;-13
2022/03/22 09:45:17;;;;;;;2.90;2.70;;;18.10;61.30;;;;;;4976031;28;20035;-13
2022/03/22 09:47:44;;;;;;;2.50;2.40;;;18.10;61.10;;;;;;4975219;28;20086;-12
2022/03/22 09:50:10;;;;;;;3.00;2.80;;;18.20;61.10;;;;;;4975646;28;20047;-12
2022/03/22 09:52:36;;;;;;;3.00;2.80;;;18.20;61.10;;;;;;4975339;28;20042;-13
2022/03/22 09:55:02;;;;;;;3.03;2.83;;;18.20;61.10;;;;;;4977153;28;20545;-12
2022/03/22 09:57:28;;;;;;;2.67;2.58;;;18.30;60.90;;;;;;4975456;28;20050;-15
2022/03/22 09:59:54;;;;;;;3.05;2.88;;;18.30;60.60;;;;;;4979676;28;20044;-15
2022/03/22 10:02:32;;;;;;;2.80;2.60;;;18.30;60.80;;;;;;4978424;28;20075;-13
2022/03/22 10:04:58;;;;;;;2.92;2.72;;;18.30;61.60;;;;;;4990732;28;20042;-14
2022/03/22 10:07:23;;;;;;;3.03;2.90;;;18.30;60.70;;;;;;4998628;28;20045;-13
2022/03/22 10:09:59;;;;;;;3.15;2.95;;;18.30;60.60;;;;;;4995468;28;20598;-13
2022/03/22 10:12:34;;;;;;;2.50;2.40;;;18.40;60.60;;;;;;4993322;28;20052;-13
2022/03/22 10:15:10;;;;;;;3.08;2.88;;;18.40;60.60;;;;;;4988363;28;20134;-13
2022/03/22 10:17:36;;;;;;;3.03;2.92;;;18.40;60.40;;;;;;4989304;28;20054;-13
2022/03/22 10:20:02;;;;;;;2.63;2.53;;;18.40;60.30;;;;;;4998221;28;20042;-13
2022/03/22 10:22:27;;;;;;;2.75;2.60;;;18.40;60.30;;;;;;4994855;28;20046;-13
2022/03/22 10:24:59;;;;;;;2.55;2.45;;;18.40;60.20;;;;;;4986303;28;20070;-12
2022/03/22 10:27:29;;;;;;;2.67;2.47;;;18.50;60.10;;;;;;4987173;28;20812;-13
2022/03/22 10:29:58;;;;;;;2.28;2.17;;;18.50;60.20;;;;;;4985514;28;20051;-13
2022/03/22 10:32:38;;;;;;;2.25;2.15;;;18.50;60.20;;;;;;4996161;28;20415;-12
2022/03/22 10:35:14;;;;;;;2.40;2.30;;;18.50;60.00;;;;;;4997223;28;20106;-12
2022/03/22 10:37:44;;;;;;;2.35;2.25;;;18.50;60.00;;;;;;4996553;28;20521;-13
2022/03/22 10:40:32;;;;;;;2.40;2.30;;;18.60;59.90;;;;;;4997989;28;20046;-12
2022/03/22 10:43:06;;;;;;;3.67;2.45;;;18.60;59.80;;;;;;4997690;28;20495;-12
2022/03/22 10:45:56;;;;;;;2.40;2.30;;;18.60;59.90;;;;;;4997300;28;20047;-14
2022/03/22 10:48:26;;;;;;;2.40;2.30;;;18.60;59.80;;;;;;4977829;28;20133;-12
2022/03/22 10:50:52;;;;;;;2.30;2.20;;;18.70;59.90;;;;;;4977591;28;20047;-13
2022/03/22 10:53:20;;;;;;;2.03;1.70;;;18.60;59.80;;;;;;4985355;28;20050;-13
2022/03/22 10:55:45;;;;;;;2.30;2.20;;;18.60;59.90;;;;;;4996689;28;20431;-12
2022/03/22 10:58:15;;;;;;;2.40;2.30;;;18.70;59.70;;;;;;4997849;28;20072;-13
2022/03/22 11:00:45;;;;;;;2.47;2.25;;;18.70;59.70;;;;;;4993593;28;20073;-13
2022/03/22 11:03:11;;;;;;;2.10;2.00;;;18.70;59.80;;;;;;4978292;28;20085;-13
2022/03/22 11:05:37;;;;;;;1.90;1.80;;;18.70;59.90;;;;;;4976962;28;20039;-12
2022/03/22 11:08:03;;;;;;;2.35;2.25;;;18.70;59.90;;;;;;4975917;28;20060;-13
2022/03/22 11:10:31;;;;;;;2.30;2.10;;;18.70;60.00;;;;;;4975249;28;20047;-12
2022/03/22 11:13:00;;;;;;;2.13;2.03;;;18.80;60.00;;;;;;4991556;28;20050;-13
2022/03/22 11:15:52;;;;;;;2.03;1.92;;;18.80;59.90;;;;;;4996060;28;20519;-13
2022/03/22 11:18:19;;;;;;;4.00;2.22;;;18.80;59.80;;;;;;4974145;28;20053;-13
2022/03/22 11:20:49;;;;;;;2.08;1.98;;;18.80;59.90;;;;;;4980628;28;20051;-12
2022/03/22 11:23:21;;;;;;;2.28;2.00;;;18.80;59.80;;;;;;4997024;28;20057;-13
2022/03/22 11:25:47;;;;;;;2.50;2.30;;;18.80;59.80;;;;;;4987305;28;20042;-13
2022/03/22 11:28:13;;;;;;;2.10;1.95;;;18.80;59.80;;;;;;4994089;28;20053;-12
2022/03/22 11:30:41;;;;;;;2.00;1.90;;;18.80;59.50;;;;;;4993574;28;20104;-12
2022/03/22 11:35:59;;;;;;;2.00;1.90;;;18.80;59.50;;;;;;4981666;28;20057;-12
2022/03/22 11:38:40;;;;;;;2.50;1.70;;;18.90;59.60;;;;;;4979680;28;20783;-14
2022/03/22 11:44:10;;;;;;;1.80;1.70;;;18.90;59.40;;;;;;4981165;28;20121;-14
2022/03/22 11:46:36;;;;;;;2.13;2.03;;;18.90;59.40;;;;;;4980677;28;20654;-16
2022/03/22 11:49:15;;;;;;;1.90;1.80;;;18.90;59.20;;;;;;4981784;28;20662;-16
2022/03/22 11:52:11;;;;;;;2.17;2.08;;;19.00;59.30;;;;;;4978183;28;20057;-15
2022/03/22 11:54:37;;;;;;;1.80;1.70;;;19.00;59.30;;;;;;4980300;28;20050;-15
2022/03/22 11:57:03;;;;;;;1.88;1.77;;;19.00;59.40;;;;;;4974208;28;20051;-15
2022/03/22 11:59:37;;;;;;;2.58;2.10;;;19.00;59.50;;;;;;4977007;28;20050;-16
2022/03/22 12:02:04;;;;;;;2.00;1.90;;;19.00;59.50;;;;;;4975621;28;20120;-16
2022/03/22 12:04:40;;;;;;;2.20;2.03;;;19.00;59.40;;;;;;4978707;28;20541;-15
2022/03/22 12:07:07;;;;;;;2.08;1.98;;;19.00;59.40;;;;;;4976597;28;20054;-15
2022/03/22 12:09:34;;;;;;;1.98;1.88;;;19.00;59.50;;;;;;4976729;28;20054;-14
2022/03/22 12:12:00;;;;;;;1.90;1.80;;;19.00;59.50;;;;;;4975574;28;20451;-15
2022/03/22 12:14:30;;;;;;;1.80;1.70;;;19.00;59.60;;;;;;4978453;28;20053;-15
2022/03/22 12:16:56;;;;;;;1.95;1.85;;;19.00;59.60;;;;;;4977135;28;20065;-14
2022/03/22 12:19:29;;;;;;;2.67;1.80;;;19.00;59.60;;;;;;4978347;28;20060;-14
2022/03/22 12:21:55;;;;;;;3.30;2.25;;;19.00;59.60;;;;;;4975980;28;20523;-13
2022/03/22 12:24:32;;;;;;;3.08;1.90;;;19.00;59.60;;;;;;4978526;28;20414;-15
2022/03/22 12:26:59;;;;;;;1.88;1.77;;;19.00;59.60;;;;;;4975163;28;20054;-14
2022/03/22 12:29:25;;;;;;;1.85;1.75;;;19.00;59.50;;;;;;4977507;28;20810;-14
2022/03/22 12:31:51;;;;;;;2.58;1.90;;;19.00;59.50;;;;;;4976342;28;20046;-15
2022/03/22 12:34:18;;;;;;;1.77;1.67;;;19.10;59.60;;;;;;4634416;28;10000268;-14
2022/03/22 12:36:44;;;;;;;1.85;1.75;;;19.10;59.40;;;;;;4979218;28;20671;-13
2022/03/22 12:39:10;;;;;;;1.65;1.55;;;19.20;59.40;;;;;;4979133;28;20049;-13
2022/03/22 12:41:36;;;;;;;2.00;1.90;;;19.20;59.20;;;;;;4979735;28;20838;-14
2022/03/22 12:44:02;;;;;;;1.73;1.63;;;19.20;59.20;;;;;;4978967;28;20432;-14
2022/03/22 12:46:28;;;;;;;1.70;1.60;;;19.20;59.20;;;;;;4978290;28;20054;-15
2022/03/22 12:48:55;;;;;;;2.03;1.83;;;19.20;59.20;;;;;;4977028;28;20104;-14
2022/03/22 12:51:23;;;;;;;1.77;1.67;;;19.20;59.30;;;;;;4978034;28;20720;-14
2022/03/22 12:53:49;;;;;;;1.80;1.70;;;19.20;59.20;;;;;;4978544;28;20104;-14
2022/03/22 12:56:15;;;;;;;1.60;1.60;;;19.30;59.10;;;;;;4980298;28;20053;-13
2022/03/22 12:58:41;;;;;;;1.80;1.70;;;19.30;59.00;;;;;;4985485;28;20527;-16
2022/03/22 13:01:06;;;;;;;4.68;1.92;;;19.30;59.10;;;;;;4995376;28;20534;-13
2022/03/22 13:03:32;;;;;;;1.52;1.42;;;19.30;59.10;;;;;;4980664;28;20043;-13
2022/03/22 13:05:58;;;;;;;2.03;1.92;;;19.30;59.20;;;;;;4983521;28;20041;-14
2022/03/22 13:11:26;;;;;;;2.15;2.05;;;19.30;59.00;;;;;;4987750;28;20133;-13
2022/03/22 13:11:29;;;;;;;1.80;1.70;;;19.30;59.10;;;;;;4994891;28;20096;-14
2022/03/22 13:16:40;;;;;;;2.05;1.75;;;19.20;59.10;;;;;;4990128;28;20045;-13
2022/03/22 13:19:06;;;;;;;1.95;1.85;;;19.20;59.30;;;;;;4993232;28;20046;-12
2022/03/22 13:21:36;;;;;;;1.92;1.83;;;19.20;59.30;;;;;;4990628;28;20031;-13